createdAt,value
2022-10-17T00:02:15.227Z,98884.47
2022-10-17T00:04:41.742Z,98885.28
2022-10-17T00:07:08.163Z,98891.44
2022-10-17T00:09:34.618Z,98894.88
2022-10-17T00:12:02.614Z,98895.75
2022-10-17T00:14:29.052Z,98887.97
2022-10-17T00:16:55.485Z,98898.22
2022-10-17T00:19:21.914Z,98904.25
2022-10-17T00:21:49.359Z,98906.78
2022-10-17T00:24:15.782Z,98900.69
2022-10-17T00:26:42.281Z,98905.06
2022-10-17T00:29:08.938Z,98905.00
2022-10-17T00:31:35.743Z,98907.59
2022-10-17T00:34:02.242Z,98905.06
2022-10-17T00:36:29.538Z,98902.59
2022-10-17T00:38:58.933Z,98902.53
2022-10-17T00:41:29.070Z,98899.94
2022-10-17T00:44:01.693Z,98899.84
2022-10-17T00:46:31.369Z,98904.06
2022-10-17T00:49:00.881Z,98906.66
2022-10-17T00:51:39.690Z,98908.44
2022-10-17T00:54:06.850Z,98910.13
2022-10-17T00:56:33.960Z,98904.25
2022-10-17T00:59:00.689Z,98915.25
2022-10-17T01:01:27.287Z,98901.25
2022-10-17T01:03:53.850Z,98908.22
2022-10-17T01:06:20.261Z,98908.84
2022-10-17T01:08:46.919Z,98911.81
2022-10-17T01:11:19.065Z,98905.28
2022-10-17T01:14:09.044Z,98906.81
2022-10-17T01:16:45.760Z,98910.88
2022-10-17T01:19:44.540Z,98912.31
2022-10-17T01:22:25.739Z,98919.63
2022-10-17T01:25:12.664Z,98911.59
2022-10-17T01:28:15.405Z,98911.50
2022-10-17T01:31:03.030Z,98908.09
2022-10-17T01:33:37.094Z,98909.97
2022-10-17T01:36:32.604Z,98908.41
2022-10-17T01:39:06.342Z,98911.38
2022-10-17T01:42:03.012Z,98912.09
2022-10-17T01:44:37.795Z,98916.38
2022-10-17T01:47:13.509Z,98914.06
2022-10-17T01:49:44.031Z,98909.09
2022-10-17T01:52:27.486Z,98902.50
2022-10-17T01:54:57.191Z,98905.66
2022-10-17T01:57:44.082Z,98898.53
2022-10-17T02:11:06.151Z,98896.50
2022-10-17T02:13:46.295Z,98889.31
2022-10-17T02:16:21.929Z,98890.81
2022-10-17T02:18:51.339Z,98888.94
2022-10-17T02:21:28.330Z,98889.69
2022-10-17T02:24:01.174Z,98901.66
2022-10-17T02:26:34.212Z,98891.34
2022-10-17T02:29:03.664Z,98894.84
2022-10-17T02:31:38.582Z,98886.94
2022-10-17T02:34:43.331Z,98891.28
2022-10-17T02:37:13.665Z,98886.94
2022-10-17T02:39:42.918Z,98888.72
2022-10-17T02:42:11.889Z,98893.28
2022-10-17T02:44:42.358Z,98896.03
2022-10-17T02:47:21.930Z,98904.47
2022-10-17T02:49:52.643Z,98911.47
2022-10-17T02:52:23.967Z,98907.38
2022-10-17T02:54:59.928Z,98921.81
2022-10-17T02:57:39.303Z,98916.47
2022-10-17T03:00:10.063Z,98917.25
2022-10-17T03:02:55.034Z,98926.44
2022-10-17T03:05:23.853Z,98925.31
2022-10-17T03:07:55.912Z,98926.94
2022-10-17T03:10:23.095Z,98923.00
2022-10-17T03:12:49.514Z,98922.47
2022-10-17T03:15:16.043Z,98927.91
2022-10-17T03:17:42.712Z,98925.41
2022-10-17T03:20:09.693Z,98927.84
2022-10-17T03:22:36.574Z,98934.91
2022-10-17T03:25:05.414Z,98932.78
2022-10-17T03:27:34.660Z,98932.19
2022-10-17T03:30:01.089Z,98945.75
2022-10-17T03:32:27.562Z,98954.63
2022-10-17T03:34:53.992Z,98949.78
2022-10-17T03:37:20.382Z,98954.34
2022-10-17T03:39:46.787Z,98955.34
2022-10-17T03:42:13.218Z,98954.50
2022-10-17T03:44:39.617Z,98957.13
2022-10-17T03:47:08.161Z,98954.53
2022-10-17T03:49:36.936Z,98952.09
2022-10-17T03:52:03.655Z,98954.63
2022-10-17T03:54:30.177Z,98958.91
2022-10-17T03:59:24.377Z,98958.09
2022-10-17T04:01:50.832Z,98963.28
2022-10-17T04:04:17.240Z,98960.84
2022-10-17T04:06:43.659Z,98968.59
2022-10-17T04:09:11.001Z,98966.88
2022-10-17T04:11:37.525Z,98965.13
2022-10-17T04:14:04.074Z,98971.22
2022-10-17T04:16:30.571Z,98971.38
2022-10-17T04:18:59.201Z,98971.44
2022-10-17T04:21:27.508Z,98978.28
2022-10-17T04:23:55.240Z,98969.81
2022-10-17T04:26:22.112Z,98975.03
2022-10-17T04:28:48.684Z,98975.22
2022-10-17T04:31:15.950Z,98982.19
2022-10-17T04:33:42.665Z,98981.41
2022-10-17T04:36:16.893Z,98976.38
2022-10-17T04:38:43.450Z,98981.41
2022-10-17T04:41:15.323Z,98980.63
2022-10-17T04:43:44.418Z,98983.28
2022-10-17T04:46:15.194Z,98978.22
2022-10-17T04:48:42.468Z,98991.25
2022-10-17T04:51:12.815Z,98989.66
2022-10-17T04:53:42.518Z,98989.00
2022-10-17T04:56:15.401Z,98985.56
2022-10-17T04:58:43.106Z,98986.56
2022-10-17T05:01:12.746Z,98983.09
2022-10-17T05:03:39.677Z,98979.75
2022-10-17T05:06:11.436Z,98986.69
2022-10-17T05:08:38.293Z,98980.59
2022-10-17T05:11:05.957Z,98981.34
2022-10-17T05:13:33.752Z,98978.81
2022-10-17T05:16:01.237Z,98981.38
2022-10-17T05:18:28.756Z,98982.38
2022-10-17T05:20:55.489Z,98985.84
2022-10-17T05:23:21.971Z,98987.59
2022-10-17T05:25:48.365Z,98996.25
2022-10-17T05:28:14.789Z,98999.63
2022-10-17T05:30:41.207Z,98997.94
2022-10-17T05:33:07.656Z,99004.03
2022-10-17T05:35:34.081Z,98996.25
2022-10-17T05:38:00.616Z,99008.38
2022-10-17T05:40:27.353Z,99008.38
2022-10-17T05:42:53.898Z,99011.91
2022-10-17T05:45:20.365Z,99011.91
2022-10-17T05:47:46.831Z,99006.75
2022-10-17T05:50:13.310Z,99014.47
2022-10-17T05:52:40.552Z,99016.19
2022-10-17T05:55:09.031Z,99011.06
2022-10-17T05:57:35.667Z,99007.63
2022-10-17T06:00:02.232Z,99009.31
2022-10-17T06:02:29.089Z,99014.41
2022-10-17T06:04:55.796Z,99022.88
2022-10-17T06:07:22.264Z,99015.09
2022-10-17T06:09:48.696Z,99020.22
2022-10-17T06:12:15.145Z,99023.53
2022-10-17T06:14:41.584Z,99022.53
2022-10-17T06:17:12.143Z,99025.56
2022-10-17T06:19:41.495Z,99029.13
2022-10-17T06:22:07.992Z,99036.19
2022-10-17T06:24:34.395Z,99038.03
2022-10-17T06:27:00.857Z,99037.19
2022-10-17T06:29:27.278Z,99044.00
2022-10-17T06:31:54.408Z,99046.44
2022-10-17T06:34:21.138Z,99046.22
2022-10-17T06:36:48.275Z,99044.06
2022-10-17T06:39:15.062Z,99046.63
2022-10-17T06:41:41.677Z,99051.13
2022-10-17T06:44:11.224Z,99061.72
2022-10-17T06:46:41.041Z,99067.94
2022-10-17T06:49:07.792Z,99062.50
2022-10-17T06:51:37.915Z,99065.25
2022-10-17T06:54:04.916Z,99072.69
2022-10-17T06:56:31.321Z,99082.59
2022-10-17T06:58:57.755Z,99083.09
2022-10-17T07:01:24.217Z,99083.34
2022-10-17T07:03:50.678Z,99079.44
2022-10-17T07:06:17.983Z,99084.28
2022-10-17T07:08:45.632Z,99083.59
2022-10-17T07:11:14.500Z,99085.41
2022-10-17T07:13:41.770Z,99089.13
2022-10-17T07:16:08.489Z,99094.22
2022-10-17T07:18:35.080Z,99094.47
2022-10-17T07:21:01.849Z,99092.91
2022-10-17T07:23:28.372Z,99093.44
2022-10-17T07:26:03.557Z,99086.13
2022-10-17T07:28:30.115Z,99086.41
2022-10-17T07:30:56.514Z,99089.53
2022-10-17T07:33:24.846Z,99102.22
2022-10-17T07:35:52.772Z,99101.66
2022-10-17T07:38:19.213Z,99097.09
2022-10-17T07:40:45.690Z,99105.97
2022-10-17T07:43:12.133Z,99086.25
2022-10-17T07:45:38.650Z,99091.47
2022-10-17T07:48:05.364Z,99098.19
2022-10-17T07:50:33.147Z,99106.34
2022-10-17T07:52:59.448Z,99110.97
2022-10-17T07:55:25.845Z,99119.47
2022-10-17T07:57:52.348Z,99122.84
2022-10-17T08:00:18.805Z,99112.41
2022-10-17T08:02:45.220Z,99114.78
2022-10-17T08:05:11.669Z,99104.09
2022-10-17T08:07:39.008Z,99105.75
2022-10-17T08:10:06.010Z,99101.97
2022-10-17T08:12:34.362Z,99098.41
2022-10-17T08:15:01.381Z,99104.78
2022-10-17T08:17:27.978Z,99103.03
2022-10-17T08:19:54.381Z,99113.97
2022-10-17T08:22:20.798Z,99119.38
2022-10-17T08:24:47.468Z,99116.22
2022-10-17T08:27:14.128Z,99111.31
2022-10-17T08:29:40.883Z,99109.28
2022-10-17T08:32:09.934Z,99112.41
2022-10-17T08:34:37.814Z,99114.13
2022-10-17T08:37:07.035Z,99112.91
2022-10-17T08:39:33.475Z,99114.94
2022-10-17T08:42:05.638Z,99105.09
2022-10-17T08:45:13.790Z,99106.53
2022-10-17T08:47:45.156Z,99100.88
2022-10-17T08:50:20.835Z,99095.78
2022-10-17T08:52:53.810Z,99099.09
2022-10-17T08:55:45.853Z,99093.94
2022-10-17T08:58:44.822Z,99100.72
2022-10-17T09:01:20.355Z,99105.19
2022-10-17T09:04:15.200Z,99107.00
2022-10-17T09:06:54.861Z,99101.69
2022-10-17T09:09:58.579Z,99099.81
2022-10-17T09:12:46.705Z,99106.88
2022-10-17T09:15:41.529Z,99099.22
2022-10-17T09:18:22.235Z,99100.47
2022-10-17T09:20:57.941Z,99101.47
2022-10-17T09:23:30.120Z,99102.53
2022-10-17T09:25:59.927Z,99090.47
2022-10-17T09:28:36.076Z,99087.69
2022-10-17T09:31:11.696Z,99096.25
2022-10-17T09:33:56.640Z,99091.41
2022-10-17T09:36:28.649Z,99097.50
2022-10-17T09:39:14.712Z,99093.81
2022-10-17T09:41:49.530Z,99099.19
2022-10-17T09:44:18.311Z,99099.09
2022-10-17T09:46:57.034Z,99090.78
2022-10-17T09:49:31.990Z,99087.84
2022-10-17T09:51:59.927Z,99087.19
2022-10-17T09:54:40.293Z,99087.06
2022-10-17T09:57:10.315Z,99086.25
2022-10-17T09:59:39.647Z,99088.78
2022-10-17T10:02:14.332Z,99084.88
2022-10-17T10:05:04.342Z,99079.19
2022-10-17T10:07:38.128Z,99087.84
2022-10-17T10:10:08.076Z,99082.16
2022-10-17T10:12:38.234Z,99080.66
2022-10-17T10:15:32.099Z,99088.66
2022-10-17T10:17:58.537Z,99079.09
2022-10-17T10:20:31.756Z,99071.19
2022-10-17T10:23:05.058Z,99074.88
2022-10-17T10:25:31.518Z,99082.25
2022-10-17T10:28:00.668Z,99074.78
2022-10-17T10:30:32.059Z,99078.25
2022-10-17T10:33:01.700Z,99080.47
2022-10-17T10:35:34.534Z,99081.53
2022-10-17T10:38:03.994Z,99090.97
2022-10-17T10:40:45.119Z,99083.41
2022-10-17T10:43:23.375Z,99078.84
2022-10-17T10:45:51.209Z,99079.50
2022-10-17T10:48:20.663Z,99080.22
2022-10-17T10:50:52.685Z,99077.28
2022-10-17T10:53:30.771Z,99073.38
2022-10-17T10:56:27.119Z,99081.28
2022-10-17T10:58:56.929Z,99081.06
2022-10-17T11:01:39.527Z,99080.66
2022-10-17T11:04:21.655Z,99074.34
2022-10-17T11:06:52.551Z,99063.50
2022-10-17T11:09:45.099Z,99063.09
2022-10-17T11:12:20.761Z,99061.50
2022-10-17T11:15:09.534Z,99060.75
2022-10-17T11:17:39.222Z,99063.88
2022-10-17T11:20:08.626Z,99054.53
2022-10-17T11:22:57.487Z,99057.03
2022-10-17T11:25:40.841Z,99052.88
2022-10-17T11:28:16.369Z,99056.66
2022-10-17T11:31:03.311Z,99050.34
2022-10-17T11:34:04.714Z,99054.53
2022-10-17T11:36:41.928Z,99059.06
2022-10-17T11:39:17.001Z,99058.97
2022-10-17T11:41:51.909Z,99055.59
2022-10-17T11:44:39.232Z,99062.78
2022-10-17T11:47:39.953Z,99058.44
2022-10-17T11:53:31.261Z,99054.16
2022-10-17T11:56:00.723Z,99061.72
2022-10-17T11:58:49.034Z,99051.63
2022-10-17T12:01:31.807Z,99053.44
2022-10-17T12:04:16.909Z,99052.69
2022-10-17T12:07:05.534Z,99054.78
2022-10-17T12:09:46.114Z,99057.28
2022-10-17T12:12:24.249Z,99057.50
2022-10-17T12:14:50.694Z,99053.63
2022-10-17T12:17:32.836Z,99056.59
2022-10-17T12:20:23.411Z,99051.22
2022-10-17T12:22:53.118Z,99047.56
2022-10-17T12:25:21.565Z,99047.63
2022-10-17T12:27:50.067Z,99043.22
2022-10-17T12:30:25.944Z,99039.00
2022-10-17T12:33:18.982Z,99045.91
2022-10-17T12:35:45.395Z,99040.84
2022-10-17T12:38:15.199Z,99046.34
2022-10-17T12:40:46.301Z,99036.25
2022-10-17T12:43:15.285Z,99034.34
2022-10-17T12:45:53.806Z,99029.72
2022-10-17T12:48:38.587Z,99020.50
2022-10-17T12:54:08.053Z,99022.56
2022-10-17T12:56:37.965Z,99024.88
2022-10-17T12:59:13.576Z,99025.84
2022-10-17T13:01:43.635Z,99020.81
2022-10-17T13:04:10.798Z,99020.59
2022-10-17T13:06:44.882Z,99027.09
2022-10-17T13:09:38.341Z,99018.34
2022-10-17T13:12:05.550Z,99015.44
2022-10-17T13:14:33.238Z,99011.56
2022-10-17T13:17:07.554Z,99011.88
2022-10-17T13:19:45.082Z,99015.13
2022-10-17T13:22:20.760Z,99013.75
2022-10-17T13:24:48.684Z,99018.28
2022-10-17T13:27:29.142Z,99014.19
2022-10-17T13:29:58.266Z,99024.59
2022-10-17T13:32:34.474Z,99024.28
2022-10-17T13:35:17.168Z,99030.63
2022-10-17T13:37:49.183Z,99030.31
2022-10-17T13:40:40.777Z,99037.16
2022-10-17T13:43:17.373Z,99054.38
2022-10-17T13:45:51.184Z,99053.31
2022-10-17T13:48:21.872Z,99046.69
2022-10-17T13:50:52.378Z,99047.84
2022-10-17T13:53:25.220Z,99044.59
2022-10-17T13:56:22.931Z,99055.22
2022-10-17T13:58:49.677Z,99051.75
2022-10-17T14:01:18.314Z,99054.16
2022-10-17T14:03:48.957Z,99057.53
2022-10-17T14:06:30.903Z,99058.91
2022-10-17T14:09:06.254Z,99058.38
2022-10-17T14:11:37.774Z,99058.38
2022-10-17T14:14:07.627Z,99064.25
2022-10-17T14:16:38.602Z,99066.16
2022-10-17T14:19:06.773Z,99061.63
2022-10-17T14:21:43.407Z,99065.94
2022-10-17T14:24:28.323Z,99058.47
2022-10-17T14:26:58.917Z,99060.34
2022-10-17T14:29:31.509Z,99053.50
2022-10-17T14:32:08.555Z,99047.63
2022-10-17T14:34:37.926Z,99052.28
2022-10-17T14:37:31.091Z,99060.66
2022-10-17T14:40:01.557Z,99060.16
2022-10-17T14:42:28.506Z,99059.38
2022-10-17T14:45:03.684Z,99068.00
2022-10-17T14:47:42.770Z,99060.63
2022-10-17T14:50:12.709Z,99063.28
2022-10-17T14:52:40.768Z,99069.97
2022-10-17T14:55:28.054Z,99064.41
2022-10-17T14:57:54.551Z,99070.06
2022-10-17T15:00:22.687Z,99075.53
2022-10-17T15:02:50.635Z,99081.94
2022-10-17T15:05:18.030Z,99081.72
2022-10-17T15:07:44.559Z,99084.56
2022-10-17T15:10:23.186Z,99081.16
2022-10-17T15:12:58.748Z,99080.72
2022-10-17T15:15:28.033Z,99075.00
2022-10-17T15:17:54.544Z,99069.53
2022-10-17T15:20:25.897Z,99077.50
2022-10-17T15:22:53.605Z,99072.00
2022-10-17T15:25:20.520Z,99080.19
2022-10-17T15:27:46.937Z,99081.50
2022-10-17T15:30:21.690Z,99078.59
2022-10-17T15:32:49.463Z,99074.59
2022-10-17T15:35:16.825Z,99081.00
2022-10-17T15:37:43.979Z,99082.75
2022-10-17T15:40:16.446Z,99083.97
2022-10-17T15:42:42.980Z,99078.28
2022-10-17T15:45:15.798Z,99079.50
2022-10-17T15:47:49.213Z,99081.53
2022-10-17T15:50:17.288Z,99087.53
2022-10-17T15:52:44.158Z,99091.84
2022-10-17T15:55:10.842Z,99096.97
2022-10-17T15:57:40.536Z,99094.59
2022-10-17T16:00:16.671Z,99088.13
2022-10-17T16:02:43.466Z,99088.16
2022-10-17T16:05:29.116Z,99090.91
2022-10-17T16:07:57.447Z,99094.84
2022-10-17T16:10:25.444Z,99099.06
2022-10-17T16:12:52.332Z,99102.94
2022-10-17T16:15:27.926Z,99106.09
2022-10-17T16:17:56.516Z,99110.06
2022-10-17T16:20:24.366Z,99106.94
2022-10-17T16:22:51.340Z,99119.63
2022-10-17T16:25:25.295Z,99116.16
2022-10-17T16:27:53.955Z,99120.94
2022-10-17T16:32:54.294Z,99114.22
2022-10-17T16:35:33.160Z,99108.53
2022-10-17T16:38:03.310Z,99119.94
2022-10-17T16:40:29.759Z,99117.00
2022-10-17T16:42:56.197Z,99116.06
2022-10-17T16:45:23.264Z,99121.97
2022-10-17T16:47:50.662Z,99125.56
2022-10-17T16:50:17.358Z,99119.19
2022-10-17T16:52:43.792Z,99123.06
2022-10-17T16:55:10.474Z,99123.16
2022-10-17T16:57:36.971Z,99126.34
2022-10-17T17:00:06.072Z,99136.28
2022-10-17T17:02:32.744Z,99131.00
2022-10-17T17:04:59.385Z,99141.72
2022-10-17T17:07:29.363Z,99140.19
2022-10-17T17:09:56.302Z,99146.72
2022-10-17T17:12:22.970Z,99135.78
2022-10-17T17:14:49.367Z,99137.75
2022-10-17T17:17:24.646Z,99148.31
2022-10-17T17:20:02.613Z,99145.94
2022-10-17T17:22:29.184Z,99143.53
2022-10-17T17:24:55.621Z,99140.41
2022-10-17T17:27:24.318Z,99139.50
2022-10-17T17:29:50.823Z,99132.88
2022-10-17T17:32:17.333Z,99143.38
2022-10-17T17:34:43.749Z,99141.06
2022-10-17T17:37:10.172Z,99139.25
2022-10-17T17:39:36.588Z,99143.69
2022-10-17T17:42:03.193Z,99140.16
2022-10-17T17:44:29.624Z,99146.13
2022-10-17T17:46:56.134Z,99155.81
2022-10-17T17:49:22.842Z,99158.47
2022-10-17T17:51:49.354Z,99161.94
2022-10-17T17:54:15.946Z,99165.59
2022-10-17T17:56:42.457Z,99174.66
2022-10-17T17:59:11.399Z,99178.50
2022-10-17T18:01:38.991Z,99180.44
2022-10-17T18:04:08.649Z,99186.94
2022-10-17T18:06:36.501Z,99185.31
2022-10-17T18:09:04.356Z,99190.06
2022-10-17T18:11:31.071Z,99190.31
2022-10-17T18:14:01.584Z,99195.22
2022-10-17T18:16:29.301Z,99196.44
2022-10-17T18:18:56.829Z,99198.28
2022-10-17T18:21:23.846Z,99206.41
2022-10-17T18:23:51.829Z,99204.00
2022-10-17T18:26:19.129Z,99204.34
2022-10-17T18:28:46.590Z,99208.09
2022-10-17T18:31:19.743Z,99210.88
2022-10-17T18:33:46.537Z,99215.50
2022-10-17T18:36:15.564Z,99220.81
2022-10-17T18:38:42.944Z,99229.66
2022-10-17T18:41:15.910Z,99227.88
2022-10-17T18:43:45.036Z,99225.44
2022-10-17T18:46:14.932Z,99221.44
2022-10-17T18:48:44.522Z,99225.91
2022-10-17T18:51:12.499Z,99221.91
2022-10-17T18:53:41.202Z,99223.59
2022-10-17T18:56:08.712Z,99219.47
2022-10-17T18:58:36.334Z,99227.28
2022-10-17T19:01:04.533Z,99223.72
2022-10-17T19:03:31.318Z,99218.47
2022-10-17T19:06:01.868Z,99223.53
2022-10-17T19:08:28.429Z,99223.59
2022-10-17T19:10:54.861Z,99221.06
2022-10-17T19:13:21.747Z,99224.56
2022-10-17T19:15:48.355Z,99220.31
2022-10-17T19:18:14.782Z,99231.59
2022-10-17T19:20:41.228Z,99226.47
2022-10-17T19:23:13.522Z,99230.78
2022-10-17T19:25:39.946Z,99229.06
2022-10-17T19:28:06.420Z,99229.94
2022-10-17T19:30:32.857Z,99228.28
2022-10-17T19:32:59.339Z,99229.13
2022-10-17T19:35:25.825Z,99236.09
2022-10-17T19:37:52.329Z,99228.53
2022-10-17T19:40:18.862Z,99234.72
2022-10-17T19:42:45.292Z,99234.72
2022-10-17T19:45:11.784Z,99235.78
2022-10-17T19:47:39.497Z,99236.72
2022-10-17T19:50:06.817Z,99237.59
2022-10-17T19:52:33.602Z,99234.34
2022-10-17T19:55:02.760Z,99237.16
2022-10-17T19:57:29.200Z,99234.66
2022-10-17T19:59:56.168Z,99238.06
2022-10-17T20:02:22.844Z,99233.72
2022-10-17T20:04:59.943Z,99238.00
2022-10-17T20:07:33.030Z,99236.16
2022-10-17T20:09:59.443Z,99240.38
2022-10-17T20:12:25.872Z,99250.94
2022-10-17T20:14:52.285Z,99251.81
2022-10-17T20:17:18.718Z,99249.44
2022-10-17T20:19:45.194Z,99253.16
2022-10-17T20:22:11.613Z,99256.66
2022-10-17T20:24:38.038Z,99250.72
2022-10-17T20:27:04.460Z,99265.88
2022-10-17T20:29:30.907Z,99269.56
2022-10-17T20:31:57.690Z,99267.22
2022-10-17T20:34:24.268Z,99264.09
2022-10-17T20:36:50.687Z,99257.31
2022-10-17T20:39:19.026Z,99266.03
2022-10-17T20:41:45.745Z,99274.69
2022-10-17T20:44:12.933Z,99266.91
2022-10-17T20:47:00.668Z,99268.91
2022-10-17T20:49:26.553Z,99263.88
2022-10-17T20:51:52.966Z,99272.59
2022-10-17T20:54:19.398Z,99266.53
2022-10-17T20:56:45.789Z,99267.81
2022-10-17T20:59:14.857Z,99263.00
2022-10-17T21:01:41.394Z,99270.78
2022-10-17T21:04:40.508Z,99275.03
2022-10-17T21:06:55.000Z,99275.19
2022-10-17T21:09:22.011Z,99276.06
2022-10-17T21:11:51.362Z,99278.75
2022-10-17T21:14:18.268Z,99281.34
2022-10-17T21:16:44.898Z,99277.22
2022-10-17T21:19:12.700Z,99281.63
2022-10-17T21:21:41.366Z,99284.28
2022-10-17T21:24:12.963Z,99293.06
2022-10-17T21:26:42.446Z,99283.66
2022-10-17T21:29:09.989Z,99282.91
2022-10-17T21:31:37.912Z,99285.56
2022-10-17T21:34:15.734Z,99291.72
2022-10-17T21:36:42.616Z,99294.47
2022-10-17T21:39:11.012Z,99292.75
2022-10-17T21:41:37.869Z,99290.22
2022-10-17T21:44:07.132Z,99286.75
2022-10-17T21:46:34.144Z,99283.31
2022-10-17T21:49:01.096Z,99275.53
2022-10-17T21:51:28.447Z,99274.66
2022-10-17T21:53:56.818Z,99272.03
2022-10-17T21:56:28.050Z,99267.72
2022-10-17T21:58:55.209Z,99271.22
2022-10-17T22:01:25.966Z,99265.22
2022-10-17T22:03:55.413Z,99270.25
2022-10-17T22:06:39.301Z,99265.81
2022-10-17T22:09:18.381Z,99270.91
2022-10-17T22:11:47.307Z,99271.72
2022-10-17T22:14:16.556Z,99268.97
2022-10-17T22:16:45.261Z,99272.31
2022-10-17T22:19:13.225Z,99279.16
2022-10-17T22:21:40.106Z,99277.44
2022-10-17T22:24:08.890Z,99277.31
2022-10-17T22:26:37.185Z,99279.06
2022-10-17T22:29:04.553Z,99276.66
2022-10-17T22:31:31.318Z,99276.84
2022-10-17T22:33:57.770Z,99277.09
2022-10-17T22:36:24.222Z,99274.66
2022-10-17T22:38:51.059Z,99273.13
2022-10-17T22:41:17.787Z,99275.81
2022-10-17T22:43:44.337Z,99261.47
2022-10-17T22:46:13.357Z,99261.72
2022-10-17T22:48:40.299Z,99253.16
2022-10-17T22:51:07.187Z,99254.13
2022-10-17T22:53:35.130Z,99251.69
2022-10-17T22:56:09.236Z,99248.28
2022-10-17T22:58:35.883Z,99252.56
2022-10-17T23:01:03.303Z,99254.50
2022-10-17T23:03:31.161Z,99258.00
2022-10-17T23:05:58.226Z,99265.13
2022-10-17T23:08:25.678Z,99257.44
2022-10-17T23:10:52.203Z,99252.41
2022-10-17T23:13:19.814Z,99255.97
2022-10-17T23:15:46.243Z,99251.84
2022-10-17T23:18:12.882Z,99250.16
2022-10-17T23:20:39.320Z,99251.06
2022-10-17T23:23:06.586Z,99243.34
2022-10-17T23:25:34.549Z,99245.03
2022-10-17T23:28:01.355Z,99241.66
2022-10-17T23:30:28.236Z,99250.34
2022-10-17T23:32:54.741Z,99246.94
2022-10-17T23:35:21.186Z,99240.88
2022-10-17T23:37:47.582Z,99249.53
2022-10-17T23:40:14.029Z,99248.69
2022-10-17T23:42:40.445Z,99251.31
2022-10-17T23:45:07.700Z,99249.66
2022-10-17T23:47:34.259Z,99249.78
2022-10-17T23:50:00.780Z,99255.03
2022-10-17T23:52:27.326Z,99255.03
2022-10-17T23:54:53.951Z,99256.78
2022-10-17T23:57:20.515Z,99248.22
2022-10-17T23:59:47.011Z,99243.91
